createdAt,value
2019-03-22T00:02:16.892Z,6.35
2019-03-22T00:04:46.050Z,5.85
2019-03-22T00:07:15.206Z,6.10
2019-03-22T00:09:44.365Z,6.72
2019-03-22T00:12:13.666Z,5.97
2019-03-22T00:14:42.845Z,6.03
2019-03-22T00:17:12.007Z,5.83
2019-03-22T00:19:41.363Z,6.05
2019-03-22T00:22:10.515Z,6.03
2019-03-22T00:24:39.701Z,6.50
2019-03-22T00:27:16.395Z,6.37
2019-03-22T00:29:39.733Z,7.58
2019-03-22T00:32:08.891Z,7.15
2019-03-22T00:34:38.032Z,6.60
2019-03-22T00:37:07.153Z,5.97
2019-03-22T00:39:36.321Z,5.87
2019-03-22T00:42:05.516Z,6.95
2019-03-22T00:44:34.645Z,6.22
2019-03-22T00:47:03.790Z,6.60
2019-03-22T00:49:32.937Z,6.70
2019-03-22T00:52:02.087Z,6.20
2019-03-22T00:54:31.227Z,7.17
2019-03-22T00:57:00.393Z,5.62
2019-03-22T00:59:29.545Z,7.00
2019-03-22T01:01:58.755Z,5.67
2019-03-22T01:04:27.890Z,5.80
2019-03-22T01:06:57.047Z,5.60
2019-03-22T01:09:26.208Z,5.78
2019-03-22T01:11:55.492Z,6.80
2019-03-22T01:14:24.630Z,5.55
2019-03-22T01:16:53.839Z,6.60
2019-03-22T01:19:23.034Z,6.45
2019-03-22T01:21:52.202Z,6.50
2019-03-22T01:24:21.356Z,6.80
2019-03-22T01:26:50.511Z,6.75
2019-03-22T01:29:19.668Z,7.55
2019-03-22T01:31:49.429Z,7.17
2019-03-22T01:34:18.588Z,6.62
2019-03-22T01:36:47.884Z,6.67
2019-03-22T01:39:17.073Z,6.95
2019-03-22T01:41:46.252Z,7.03
2019-03-22T01:44:15.466Z,7.33
2019-03-22T01:46:44.645Z,6.95
2019-03-22T01:49:13.815Z,7.03
2019-03-22T01:51:42.954Z,7.58
2019-03-22T01:54:12.114Z,7.72
2019-03-22T01:56:41.334Z,7.10
2019-03-22T01:59:10.527Z,7.42
2019-03-22T02:01:39.688Z,8.08
2019-03-22T02:04:08.853Z,7.50
2019-03-22T02:06:37.983Z,8.20
2019-03-22T02:09:08.206Z,7.53
2019-03-22T02:11:37.385Z,7.95
2019-03-22T02:14:06.594Z,7.55
2019-03-22T02:16:35.761Z,8.63
2019-03-22T02:19:05.009Z,7.37
2019-03-22T02:21:35.029Z,8.38
2019-03-22T02:24:04.453Z,8.65
2019-03-22T02:26:33.612Z,7.75
2019-03-22T02:29:02.773Z,7.72
2019-03-22T02:31:31.911Z,7.90
2019-03-22T02:34:01.092Z,8.70
2019-03-22T02:36:30.238Z,7.53
2019-03-22T02:38:59.465Z,8.08
2019-03-22T02:41:28.607Z,7.58
2019-03-22T02:43:57.770Z,8.20
2019-03-22T02:46:26.952Z,9.13
2019-03-22T02:48:56.102Z,9.38
2019-03-22T02:51:25.274Z,9.03
2019-03-22T02:53:54.485Z,9.00
2019-03-22T02:56:23.605Z,8.43
2019-03-22T02:58:52.822Z,8.55
2019-03-22T03:01:21.993Z,8.70
2019-03-22T03:03:51.159Z,7.95
2019-03-22T03:06:20.292Z,9.70
2019-03-22T03:08:49.458Z,8.45
2019-03-22T03:11:18.620Z,8.65
2019-03-22T03:13:47.767Z,8.85
2019-03-22T03:16:16.947Z,9.85
2019-03-22T03:18:46.100Z,9.35
2019-03-22T03:21:15.282Z,9.03
2019-03-22T03:23:44.494Z,8.90
2019-03-22T03:26:13.650Z,8.90
2019-03-22T03:28:42.839Z,10.08
2019-03-22T03:31:12.010Z,9.18
2019-03-22T03:33:41.249Z,9.90
2019-03-22T03:36:10.456Z,9.40
2019-03-22T03:38:39.606Z,10.20
2019-03-22T03:41:08.781Z,9.55
2019-03-22T03:43:37.912Z,10.60
2019-03-22T03:46:07.132Z,9.20
2019-03-22T03:48:36.350Z,9.43
2019-03-22T03:51:05.569Z,9.15
2019-03-22T03:53:34.705Z,9.68
2019-03-22T03:56:03.915Z,10.28
2019-03-22T03:58:33.043Z,10.15
2019-03-22T04:01:02.348Z,9.53
2019-03-22T04:03:31.411Z,9.25
2019-03-22T04:06:00.577Z,9.55
2019-03-22T04:08:29.749Z,10.35
2019-03-22T04:10:58.889Z,8.93
2019-03-22T04:13:28.050Z,9.15
2019-03-22T04:15:57.190Z,10.53
2019-03-22T04:18:26.426Z,11.40
2019-03-22T04:20:55.576Z,10.10
2019-03-22T04:23:24.751Z,10.32
2019-03-22T04:25:53.905Z,10.10
2019-03-22T04:28:23.154Z,10.32
2019-03-22T04:30:52.304Z,10.05
2019-03-22T04:33:21.471Z,9.75
2019-03-22T04:35:50.689Z,9.48
2019-03-22T04:38:19.856Z,10.20
2019-03-22T04:40:49.023Z,10.50
2019-03-22T04:43:18.230Z,9.58
2019-03-22T04:45:48.048Z,11.35
2019-03-22T04:48:21.262Z,11.50
2019-03-22T04:50:51.663Z,11.93
2019-03-22T04:53:22.571Z,10.28
2019-03-22T04:55:55.541Z,11.55
2019-03-22T04:58:25.387Z,11.10
2019-03-22T05:00:55.171Z,11.40
2019-03-22T05:03:25.902Z,10.93
2019-03-22T05:05:56.737Z,11.48
2019-03-22T05:08:27.179Z,11.10
2019-03-22T05:10:56.895Z,11.40
2019-03-22T05:13:26.552Z,11.48
2019-03-22T05:15:56.264Z,12.00
2019-03-22T05:18:25.612Z,11.25
2019-03-22T05:20:55.047Z,10.40
2019-03-22T05:23:24.754Z,12.23
2019-03-22T05:25:55.543Z,11.45
2019-03-22T05:28:25.061Z,12.10
2019-03-22T05:31:22.639Z,11.03
2019-03-22T05:33:51.789Z,12.10
2019-03-22T05:36:21.076Z,12.03
2019-03-22T05:38:50.226Z,11.83
2019-03-22T05:41:19.389Z,12.23
2019-03-22T05:43:48.564Z,12.40
2019-03-22T05:46:17.762Z,12.20
2019-03-22T05:48:46.949Z,13.60
2019-03-22T05:51:16.105Z,12.60
2019-03-22T05:53:45.282Z,12.35
2019-03-22T05:56:14.446Z,12.28
2019-03-22T05:58:43.620Z,12.03
2019-03-22T06:01:12.805Z,11.43
2019-03-22T06:03:42.014Z,12.10
2019-03-22T06:06:11.184Z,11.60
2019-03-22T06:08:40.342Z,12.98
2019-03-22T06:11:09.508Z,12.25
2019-03-22T06:13:38.739Z,12.25
2019-03-22T06:16:07.898Z,12.95
2019-03-22T06:18:37.045Z,11.38
2019-03-22T06:21:06.247Z,16.60
2019-03-22T06:23:35.409Z,16.07
2019-03-22T06:26:04.566Z,16.75
2019-03-22T06:28:33.732Z,15.30
2019-03-22T06:31:02.892Z,17.02
2019-03-22T06:33:32.048Z,17.25
2019-03-22T06:36:01.215Z,13.65
2019-03-22T06:38:30.449Z,13.93
2019-03-22T06:41:00.326Z,15.32
2019-03-22T06:43:29.542Z,13.78
2019-03-22T06:45:58.724Z,13.50
2019-03-22T06:48:27.851Z,13.08
2019-03-22T06:50:57.052Z,13.88
2019-03-22T06:53:26.193Z,12.50
2019-03-22T06:55:55.358Z,11.55
2019-03-22T06:58:24.556Z,12.07
2019-03-22T07:00:53.758Z,10.72
2019-03-22T07:03:22.920Z,11.90
2019-03-22T07:05:52.075Z,12.00
2019-03-22T07:08:21.231Z,13.00
2019-03-22T07:10:50.393Z,12.60
2019-03-22T07:13:19.550Z,12.78
2019-03-22T07:15:48.740Z,12.53
2019-03-22T07:18:17.868Z,12.47
2019-03-22T07:20:47.083Z,13.98
2019-03-22T07:23:16.233Z,13.20
2019-03-22T07:25:45.405Z,13.18
2019-03-22T07:28:14.547Z,13.25
2019-03-22T07:30:49.585Z,12.70
2019-03-22T07:33:18.780Z,13.90
2019-03-22T07:35:47.935Z,14.80
2019-03-22T07:38:17.118Z,17.65
2019-03-22T07:40:47.572Z,19.60
2019-03-22T07:43:16.745Z,14.03
2019-03-22T07:45:46.062Z,13.60
2019-03-22T07:48:15.309Z,14.10
2019-03-22T07:50:44.486Z,13.10
2019-03-22T07:53:13.658Z,12.60
2019-03-22T07:55:42.862Z,12.80
2019-03-22T07:58:12.038Z,12.55
2019-03-22T08:00:41.451Z,12.13
2019-03-22T08:03:10.626Z,13.07
2019-03-22T08:05:50.848Z,13.00
2019-03-22T08:08:10.690Z,12.43
2019-03-22T08:10:39.890Z,12.80
2019-03-22T08:13:09.054Z,11.90
2019-03-22T08:15:38.304Z,11.97
2019-03-22T08:18:07.492Z,12.40
2019-03-22T08:20:38.821Z,11.30
2019-03-22T08:23:20.747Z,12.30
2019-03-22T08:25:50.075Z,11.20
2019-03-22T08:28:19.276Z,11.40
2019-03-22T08:30:48.501Z,11.47
2019-03-22T08:33:17.753Z,12.07
2019-03-22T08:35:47.064Z,11.07
2019-03-22T08:38:17.515Z,10.80
2019-03-22T08:40:47.067Z,10.60
2019-03-22T08:43:16.227Z,9.90
2019-03-22T08:45:45.592Z,10.67
2019-03-22T08:48:14.923Z,11.50
2019-03-22T08:50:44.109Z,10.47
2019-03-22T08:53:13.282Z,9.30
2019-03-22T08:55:42.620Z,9.23
2019-03-22T08:58:11.752Z,7.83
2019-03-22T09:00:40.934Z,8.33
2019-03-22T09:03:10.147Z,7.80
2019-03-22T09:05:39.338Z,7.60
2019-03-22T09:08:08.510Z,7.70
2019-03-22T09:10:37.630Z,7.93
2019-03-22T09:13:06.819Z,7.10
2019-03-22T09:15:41.260Z,7.10
2019-03-22T09:18:06.917Z,8.43
2019-03-22T09:20:36.157Z,7.70
2019-03-22T09:23:05.472Z,7.20
2019-03-22T09:25:34.667Z,7.20
2019-03-22T09:28:03.924Z,7.20
2019-03-22T09:30:33.110Z,8.10
2019-03-22T09:33:02.266Z,6.80
2019-03-22T09:35:31.486Z,8.23
2019-03-22T09:38:12.306Z,6.87
2019-03-22T09:40:31.544Z,7.27
2019-03-22T09:43:00.791Z,7.60
2019-03-22T09:45:30.186Z,6.90
2019-03-22T09:47:59.441Z,8.10
2019-03-22T09:50:28.575Z,6.80
2019-03-22T09:52:57.777Z,7.67
2019-03-22T09:55:27.374Z,6.90
2019-03-22T09:57:56.589Z,7.73
2019-03-22T10:00:33.701Z,6.83
2019-03-22T10:03:03.625Z,6.90
2019-03-22T10:05:32.882Z,8.47
2019-03-22T10:08:02.148Z,7.00
2019-03-22T10:10:31.449Z,6.93
2019-03-22T10:13:00.563Z,7.43
2019-03-22T10:15:29.758Z,7.43
2019-03-22T10:17:58.923Z,7.30
2019-03-22T10:20:28.128Z,7.07
2019-03-22T10:22:57.206Z,6.30
2019-03-22T10:25:26.364Z,7.50
2019-03-22T10:27:55.576Z,6.57
2019-03-22T10:30:24.850Z,6.30
2019-03-22T10:32:53.952Z,6.90
2019-03-22T10:35:26.322Z,7.90
2019-03-22T10:38:00.352Z,6.83
2019-03-22T10:40:25.031Z,7.87
2019-03-22T10:42:54.134Z,6.10
2019-03-22T10:45:23.358Z,7.00
2019-03-22T10:47:52.627Z,7.80
2019-03-22T10:50:21.736Z,7.20
2019-03-22T10:52:50.925Z,7.77
2019-03-22T10:55:29.884Z,6.20
2019-03-22T10:57:50.937Z,7.37
2019-03-22T11:00:20.162Z,7.80
2019-03-22T11:02:49.351Z,8.00
2019-03-22T11:05:18.585Z,7.80
2019-03-22T11:07:47.764Z,8.40
2019-03-22T11:10:16.971Z,9.60
2019-03-22T11:12:46.226Z,7.83
2019-03-22T11:15:15.430Z,8.33
2019-03-22T11:17:44.741Z,7.63
2019-03-22T11:20:14.894Z,7.23
2019-03-22T11:22:44.129Z,8.63
2019-03-22T11:25:13.764Z,7.80
2019-03-22T11:27:43.206Z,8.70
2019-03-22T11:30:14.945Z,8.10
2019-03-22T11:32:44.188Z,9.17
2019-03-22T11:35:13.690Z,8.20
2019-03-22T11:37:42.909Z,8.60
2019-03-22T11:40:13.218Z,8.23
2019-03-22T11:42:42.364Z,7.83
2019-03-22T11:45:13.456Z,7.93
2019-03-22T11:47:42.690Z,7.47
2019-03-22T11:50:11.910Z,7.90
2019-03-22T11:52:41.144Z,8.03
2019-03-22T11:55:11.047Z,8.27
2019-03-22T11:57:40.192Z,7.47
2019-03-22T12:00:15.681Z,6.83
2019-03-22T12:02:44.832Z,7.33
2019-03-22T12:05:14.209Z,7.13
2019-03-22T12:07:43.437Z,6.93
2019-03-22T12:10:13.162Z,6.40
2019-03-22T12:12:42.330Z,6.53
2019-03-22T12:15:11.946Z,6.60
2019-03-22T12:17:41.161Z,6.37
2019-03-22T12:20:11.688Z,6.53
2019-03-22T12:22:40.847Z,7.90
2019-03-22T12:25:10.960Z,9.33
2019-03-22T12:27:40.113Z,9.33
2019-03-22T12:30:11.748Z,8.87
2019-03-22T12:32:40.892Z,8.20
2019-03-22T12:35:11.681Z,9.17
2019-03-22T12:37:40.870Z,8.67
2019-03-22T12:40:10.922Z,10.53
2019-03-22T12:42:40.080Z,10.00
2019-03-22T12:45:12.577Z,9.23
2019-03-22T12:47:41.829Z,9.37
2019-03-22T12:50:11.301Z,8.73
2019-03-22T12:52:40.531Z,9.27
2019-03-22T12:55:09.995Z,8.40
2019-03-22T12:57:39.238Z,8.20
2019-03-22T13:00:10.537Z,8.60
2019-03-22T13:02:42.406Z,9.20
2019-03-22T13:05:11.415Z,9.43
2019-03-22T13:07:40.570Z,6.40
2019-03-22T13:10:10.386Z,6.80
2019-03-22T13:12:39.548Z,5.77
2019-03-22T13:15:09.009Z,5.60
2019-03-22T13:17:38.153Z,6.93
2019-03-22T13:20:09.555Z,7.10
2019-03-22T13:22:38.710Z,6.33
2019-03-22T13:25:07.903Z,6.30
2019-03-22T13:27:37.116Z,6.20
2019-03-22T13:30:07.035Z,6.30
2019-03-22T13:32:36.231Z,6.10
2019-03-22T13:35:06.508Z,6.63
2019-03-22T13:37:35.727Z,6.73
2019-03-22T13:40:05.797Z,6.17
2019-03-22T13:42:34.958Z,5.97
2019-03-22T13:45:04.608Z,6.07
2019-03-22T13:47:33.869Z,6.07
2019-03-22T13:50:03.082Z,5.40
2019-03-22T13:52:32.264Z,5.50
2019-03-22T13:55:01.635Z,5.13
2019-03-22T13:57:31.190Z,5.50
2019-03-22T14:00:00.407Z,4.87
2019-03-22T14:02:29.596Z,6.10
2019-03-22T14:04:58.767Z,6.60
2019-03-22T14:07:28.013Z,6.07
2019-03-22T14:09:57.290Z,4.83
2019-03-22T14:12:36.601Z,5.77
2019-03-22T14:14:57.332Z,4.53
2019-03-22T14:17:26.529Z,4.23
2019-03-22T14:19:55.691Z,3.10
2019-03-22T14:22:24.926Z,3.17
2019-03-22T14:24:54.183Z,3.37
2019-03-22T14:27:23.366Z,2.77
2019-03-22T14:29:52.706Z,3.43
2019-03-22T14:32:21.857Z,3.10
2019-03-22T14:34:51.009Z,2.87
2019-03-22T14:37:20.187Z,2.63
2019-03-22T14:39:49.381Z,2.90
2019-03-22T14:42:18.540Z,3.30
2019-03-22T14:44:47.738Z,3.30
2019-03-22T14:47:17.002Z,2.87
2019-03-22T14:49:46.174Z,3.03
2019-03-22T14:52:15.414Z,3.40
2019-03-22T14:54:44.590Z,2.70
2019-03-22T14:57:13.748Z,3.00
2019-03-22T14:59:42.905Z,3.23
2019-03-22T15:02:12.097Z,2.93
2019-03-22T15:04:41.281Z,4.47
2019-03-22T15:07:19.338Z,3.07
2019-03-22T15:09:41.337Z,2.30
2019-03-22T15:12:10.505Z,2.40
2019-03-22T15:15:04.525Z,2.10
2019-03-22T15:18:04.712Z,2.43
2019-03-22T15:20:55.679Z,2.93
2019-03-22T15:23:43.860Z,2.67
2019-03-22T15:26:30.776Z,2.80
2019-03-22T15:29:12.410Z,2.40
2019-03-22T15:32:09.618Z,2.10
2019-03-22T15:35:02.420Z,1.83
2019-03-22T15:37:50.772Z,2.20
2019-03-22T15:40:19.935Z,2.10
2019-03-22T15:42:49.085Z,1.93
2019-03-22T15:45:18.398Z,2.13
2019-03-22T15:47:47.563Z,2.60
2019-03-22T15:50:16.883Z,2.30
2019-03-22T15:52:46.044Z,2.30
2019-03-22T15:55:15.305Z,2.23
2019-03-22T15:57:44.521Z,2.00
2019-03-22T16:00:16.195Z,2.40
2019-03-22T16:02:45.560Z,2.00
2019-03-22T16:05:15.137Z,2.43
2019-03-22T16:07:44.402Z,2.27
2019-03-22T16:10:13.655Z,2.50
2019-03-22T16:12:42.836Z,2.10
2019-03-22T16:15:12.309Z,1.77
2019-03-22T16:17:41.464Z,2.67
2019-03-22T16:20:11.296Z,2.17
2019-03-22T16:22:40.498Z,2.50
2019-03-22T16:25:09.735Z,2.40
2019-03-22T16:27:38.990Z,2.50
2019-03-22T16:30:08.474Z,2.60
2019-03-22T16:32:37.761Z,2.87
2019-03-22T16:35:08.237Z,3.07
2019-03-22T16:37:37.397Z,2.83
2019-03-22T16:40:07.253Z,2.60
2019-03-22T16:42:36.500Z,3.40
2019-03-22T16:45:06.786Z,3.30
2019-03-22T16:47:36.665Z,3.50
2019-03-22T16:50:13.538Z,2.87
2019-03-22T16:52:42.748Z,3.33
2019-03-22T16:55:12.586Z,3.47
2019-03-22T16:57:41.793Z,3.13
2019-03-22T17:00:11.318Z,3.00
2019-03-22T17:02:40.568Z,3.73
2019-03-22T17:05:09.971Z,3.37
2019-03-22T17:07:39.271Z,3.30
2019-03-22T17:10:08.645Z,3.37
2019-03-22T17:12:37.824Z,3.40
2019-03-22T17:15:07.631Z,3.50
2019-03-22T17:17:37.481Z,3.20
2019-03-22T17:20:07.800Z,3.10
2019-03-22T17:22:37.089Z,3.77
2019-03-22T17:25:06.432Z,3.27
2019-03-22T17:27:35.706Z,3.83
2019-03-22T17:30:05.081Z,3.70
2019-03-22T17:32:34.241Z,3.40
2019-03-22T17:35:03.449Z,2.83
2019-03-22T17:37:32.616Z,3.43
2019-03-22T17:40:01.827Z,2.93
2019-03-22T17:42:30.990Z,3.60
2019-03-22T17:45:00.176Z,2.50
2019-03-22T17:47:29.418Z,2.40
2019-03-22T17:49:58.596Z,2.80
2019-03-22T17:52:27.845Z,3.27
2019-03-22T17:54:57.025Z,3.13
2019-03-22T17:57:26.209Z,2.53
2019-03-22T17:59:55.367Z,2.37
2019-03-22T18:02:24.613Z,2.50
2019-03-22T18:04:53.798Z,2.50
2019-03-22T18:07:22.965Z,2.57
2019-03-22T18:09:52.168Z,2.07
2019-03-22T18:12:21.343Z,2.70
2019-03-22T18:14:50.511Z,2.10
2019-03-22T18:17:19.688Z,2.73
2019-03-22T18:19:48.859Z,2.30
2019-03-22T18:22:18.020Z,2.60
2019-03-22T18:24:47.282Z,1.97
2019-03-22T18:27:16.513Z,2.77
2019-03-22T18:29:45.681Z,2.80
2019-03-22T18:32:14.844Z,3.20
2019-03-22T18:34:44.038Z,2.63
2019-03-22T18:37:13.199Z,2.80
2019-03-22T18:39:42.465Z,3.77
2019-03-22T18:42:11.814Z,4.77
2019-03-22T18:44:40.978Z,3.53
2019-03-22T18:47:10.147Z,4.80
2019-03-22T18:49:39.359Z,5.63
2019-03-22T18:52:08.571Z,5.87
2019-03-22T18:54:42.135Z,5.00
2019-03-22T18:57:08.709Z,4.33
2019-03-22T18:59:37.927Z,4.50
2019-03-22T19:02:09.897Z,4.97
2019-03-22T19:04:43.987Z,5.13
2019-03-22T19:07:19.352Z,4.40
2019-03-22T19:09:57.170Z,3.80
2019-03-22T19:12:27.441Z,4.60
2019-03-22T19:15:13.287Z,4.23
2019-03-22T19:17:54.115Z,4.00
2019-03-22T19:20:32.075Z,4.40
2019-03-22T19:23:04.741Z,3.87
2019-03-22T19:25:39.815Z,4.20
2019-03-22T19:28:10.498Z,4.47
2019-03-22T19:30:44.375Z,3.60
2019-03-22T19:33:16.971Z,4.63
2019-03-22T19:35:46.588Z,4.50
2019-03-22T19:38:18.825Z,3.97
2019-03-22T19:40:51.950Z,4.37
2019-03-22T19:43:22.827Z,4.90
2019-03-22T19:46:01.686Z,5.23
2019-03-22T19:48:34.414Z,4.70
2019-03-22T19:51:13.897Z,4.90
2019-03-22T19:53:56.502Z,4.67
2019-03-22T19:56:30.193Z,4.40
2019-03-22T19:59:00.801Z,5.07
2019-03-22T20:01:35.103Z,5.07
2019-03-22T20:04:07.936Z,5.00
2019-03-22T20:06:37.669Z,5.40
2019-03-22T20:09:12.147Z,5.00
2019-03-22T20:11:47.140Z,7.03
2019-03-22T20:14:26.839Z,6.20
2019-03-22T20:16:59.884Z,7.30
2019-03-22T20:19:30.678Z,5.10
2019-03-22T20:25:01.536Z,6.50
2019-03-22T20:27:52.285Z,5.80
2019-03-22T20:30:24.080Z,5.00
2019-03-22T20:32:58.742Z,5.23
2019-03-22T20:35:38.915Z,6.20
2019-03-22T20:38:12.593Z,5.17
2019-03-22T20:40:45.963Z,5.17
2019-03-22T20:43:16.611Z,7.30
2019-03-22T20:45:50.599Z,6.10
2019-03-22T20:48:24.934Z,6.03
2019-03-22T20:50:56.013Z,7.43
2019-03-22T20:53:29.030Z,6.00
2019-03-22T20:56:02.891Z,6.30
2019-03-22T20:58:41.475Z,5.60
2019-03-22T21:01:21.786Z,6.03
2019-03-22T21:03:51.700Z,8.30
2019-03-22T21:06:25.980Z,15.43
2019-03-22T21:08:58.990Z,27.40
2019-03-22T21:11:46.077Z,24.47
2019-03-22T21:14:17.675Z,27.37
2019-03-22T21:16:49.401Z,21.13
2019-03-22T21:19:20.036Z,21.00
2019-03-22T21:21:51.299Z,19.90
2019-03-22T21:24:23.895Z,20.87
2019-03-22T21:26:55.112Z,20.57
2019-03-22T21:29:26.761Z,18.87
2019-03-22T21:31:57.267Z,19.33
2019-03-22T21:34:34.024Z,15.00
2019-03-22T21:37:10.753Z,15.40
2019-03-22T21:39:40.623Z,16.80
2019-03-22T21:42:10.639Z,17.20
2019-03-22T21:44:40.063Z,19.27
2019-03-22T21:47:16.738Z,16.67
2019-03-22T21:49:46.578Z,16.57
2019-03-22T21:52:31.982Z,16.60
2019-03-22T21:55:10.586Z,16.70
2019-03-22T21:57:52.366Z,14.60
2019-03-22T22:00:28.897Z,13.63
2019-03-22T22:02:59.015Z,12.37
2019-03-22T22:05:29.197Z,12.00
2019-03-22T22:07:59.817Z,14.30
2019-03-22T22:10:30.551Z,17.30
2019-03-22T22:13:12.894Z,19.30
2019-03-22T22:15:44.586Z,27.80
2019-03-22T22:18:16.970Z,29.33
2019-03-22T22:20:53.047Z,31.27
2019-03-22T22:23:53.780Z,32.47
2019-03-22T22:26:30.520Z,35.53
2019-03-22T22:29:01.559Z,30.73
2019-03-22T22:31:36.869Z,28.17
2019-03-22T22:34:11.183Z,24.60
2019-03-22T22:36:44.449Z,22.07
2019-03-22T22:39:32.256Z,19.20
2019-03-22T22:42:04.962Z,15.90
2019-03-22T22:44:39.319Z,14.10
2019-03-22T22:47:31.646Z,12.77
2019-03-22T22:50:09.283Z,12.40
2019-03-22T22:52:40.368Z,11.03
2019-03-22T22:55:18.514Z,10.60
2019-03-22T22:57:49.819Z,10.20
2019-03-22T23:00:19.345Z,9.50
2019-03-22T23:02:53.004Z,8.93
2019-03-22T23:05:23.081Z,9.57
2019-03-22T23:07:58.168Z,9.00
2019-03-22T23:10:29.920Z,9.53
2019-03-22T23:13:02.602Z,8.70
2019-03-22T23:15:34.827Z,8.87
2019-03-22T23:18:07.585Z,9.53
2019-03-22T23:20:39.757Z,9.40
2019-03-22T23:23:13.097Z,8.43
2019-03-22T23:25:46.761Z,11.05
2019-03-22T23:28:19.851Z,10.93
2019-03-22T23:30:53.190Z,11.40
2019-03-22T23:33:24.737Z,9.63
2019-03-22T23:35:56.181Z,9.40
2019-03-22T23:38:27.732Z,9.10
2019-03-22T23:41:00.360Z,8.23
2019-03-22T23:43:33.082Z,8.97
2019-03-22T23:46:08.475Z,8.90
2019-03-22T23:48:38.793Z,10.23
2019-03-22T23:51:09.662Z,8.13
2019-03-22T23:53:44.071Z,10.20
2019-03-22T23:56:15.719Z,9.93
2019-03-22T23:58:49.219Z,8.77
